Dalhart, Texas
Current Conditions -  °F | °C
As of 7:53 AM on Saturday 22 Nov 2014 (Local Time) from KDHT Reporting Station
Clear Clear  
Wind Chill: -4°   Ceiling: Unl
Heat Index:   Visibility: 10mi
Dew Point: -4°   Wind: 8mph
Humidity: 73%   Direction: 260°W
Pressure: 29.95"   Gusts: NA
Location:  36.06°N, 102.52°W
Report Text: KDHT 221353Z AUTO 26007KT 10SM CLR 00/M04 A2995 RMK AO2 SLP144 T00001044
Loading
Personal Weather Stations






























Interactive Weather Map New forecast layout! Learn more

10-Day Weather Forecast

Advertisements
Track Severe Weather on mobile